sensor_id;sensor_type;location;lat;lon;timestamp;P1;durP1;ratioP1;P2;durP2;ratioP2
20814;SDS011;10568;48.176;16.316;2022-08-02T00:02:12;1.10;;;1.00;;
20814;SDS011;10568;48.176;16.316;2022-08-02T00:04:38;1.17;;;1.00;;
20814;SDS011;10568;48.176;16.316;2022-08-02T00:07:04;1.52;;;1.27;;
20814;SDS011;10568;48.176;16.316;2022-08-02T00:09:30;1.75;;;1.27;;
20814;SDS011;10568;48.176;16.316;2022-08-02T00:11:55;1.67;;;1.08;;
20814;SDS011;10568;48.176;16.316;2022-08-02T00:14:21;1.48;;;1.20;;
20814;SDS011;10568;48.176;16.316;2022-08-02T00:16:47;1.27;;;0.93;;
20814;SDS011;10568;48.176;16.316;2022-08-02T00:19:13;1.92;;;1.30;;
20814;SDS011;10568;48.176;16.316;2022-08-02T00:21:39;1.95;;;1.50;;
20814;SDS011;10568;48.176;16.316;2022-08-02T00:24:05;1.20;;;1.00;;
20814;SDS011;10568;48.176;16.316;2022-08-02T00:26:31;1.70;;;1.38;;
20814;SDS011;10568;48.176;16.316;2022-08-02T00:28:57;1.30;;;1.15;;
20814;SDS011;10568;48.176;16.316;2022-08-02T00:31:23;4.90;;;1.15;;
20814;SDS011;10568;48.176;16.316;2022-08-02T00:33:48;2.20;;;1.30;;
20814;SDS011;10568;48.176;16.316;2022-08-02T00:36:14;2.22;;;1.30;;
20814;SDS011;10568;48.176;16.316;2022-08-02T00:38:41;1.85;;;0.93;;
20814;SDS011;10568;48.176;16.316;2022-08-02T00:41:13;1.23;;;1.13;;
20814;SDS011;10568;48.176;16.316;2022-08-02T00:43:42;1.63;;;1.20;;
20814;SDS011;10568;48.176;16.316;2022-08-02T00:46:09;1.30;;;1.20;;
20814;SDS011;10568;48.176;16.316;2022-08-02T00:48:35;2.00;;;1.10;;
20814;SDS011;10568;48.176;16.316;2022-08-02T00:51:01;2.47;;;1.20;;
20814;SDS011;10568;48.176;16.316;2022-08-02T00:53:27;1.02;;;1.00;;
20814;SDS011;10568;48.176;16.316;2022-08-02T00:55:53;1.20;;;0.82;;
20814;SDS011;10568;48.176;16.316;2022-08-02T00:58:19;1.23;;;1.13;;
20814;SDS011;10568;48.176;16.316;2022-08-02T01:00:45;1.10;;;1.00;;
20814;SDS011;10568;48.176;16.316;2022-08-02T01:03:10;1.02;;;0.88;;
20814;SDS011;10568;48.176;16.316;2022-08-02T01:05:36;1.33;;;1.00;;
20814;SDS011;10568;48.176;16.316;2022-08-02T01:08:02;1.70;;;1.17;;
20814;SDS011;10568;48.176;16.316;2022-08-02T01:10:28;1.27;;;1.17;;
20814;SDS011;10568;48.176;16.316;2022-08-02T01:12:54;3.13;;;1.10;;
20814;SDS011;10568;48.176;16.316;2022-08-02T01:15:19;2.13;;;1.13;;
20814;SDS011;10568;48.176;16.316;2022-08-02T01:25:59;1.95;;;1.00;;
20814;SDS011;10568;48.176;16.316;2022-08-02T01:34:03;1.20;;;0.90;;
20814;SDS011;10568;48.176;16.316;2022-08-02T01:36:38;2.07;;;1.10;;
20814;SDS011;10568;48.176;16.316;2022-08-02T01:39:08;1.50;;;1.15;;
20814;SDS011;10568;48.176;16.316;2022-08-02T01:41:38;1.23;;;0.90;;
20814;SDS011;10568;48.176;16.316;2022-08-02T01:44:12;0.95;;;0.85;;
20814;SDS011;10568;48.176;16.316;2022-08-02T01:46:41;1.07;;;0.90;;
20814;SDS011;10568;48.176;16.316;2022-08-02T01:49:11;0.63;;;0.63;;
20814;SDS011;10568;48.176;16.316;2022-08-02T01:51:42;1.53;;;1.00;;
20814;SDS011;10568;48.176;16.316;2022-08-02T01:54:32;1.37;;;0.90;;
20814;SDS011;10568;48.176;16.316;2022-08-02T01:57:01;1.00;;;0.90;;
20814;SDS011;10568;48.176;16.316;2022-08-02T01:59:28;1.00;;;0.90;;
20814;SDS011;10568;48.176;16.316;2022-08-02T02:02:02;1.50;;;1.10;;
20814;SDS011;10568;48.176;16.316;2022-08-02T02:04:31;0.90;;;0.77;;
20814;SDS011;10568;48.176;16.316;2022-08-02T02:06:59;0.80;;;0.75;;
20814;SDS011;10568;48.176;16.316;2022-08-02T02:09:27;1.13;;;1.03;;
20814;SDS011;10568;48.176;16.316;2022-08-02T02:11:55;1.98;;;1.00;;
20814;SDS011;10568;48.176;16.316;2022-08-02T02:14:24;1.03;;;0.93;;
20814;SDS011;10568;48.176;16.316;2022-08-02T02:16:54;1.00;;;0.90;;
20814;SDS011;10568;48.176;16.316;2022-08-02T02:19:22;0.80;;;0.80;;
20814;SDS011;10568;48.176;16.316;2022-08-02T02:21:49;0.87;;;0.70;;
20814;SDS011;10568;48.176;16.316;2022-08-02T02:24:15;1.13;;;0.83;;
20814;SDS011;10568;48.176;16.316;2022-08-02T02:26:42;0.97;;;0.80;;
20814;SDS011;10568;48.176;16.316;2022-08-02T02:29:10;1.00;;;0.70;;
20814;SDS011;10568;48.176;16.316;2022-08-02T02:31:37;0.80;;;0.70;;
20814;SDS011;10568;48.176;16.316;2022-08-02T02:36:36;0.80;;;0.80;;
20814;SDS011;10568;48.176;16.316;2022-08-02T02:39:06;1.00;;;0.90;;
20814;SDS011;10568;48.176;16.316;2022-08-02T02:41:33;1.08;;;0.80;;
20814;SDS011;10568;48.176;16.316;2022-08-02T02:44:02;1.00;;;0.90;;
20814;SDS011;10568;48.176;16.316;2022-08-02T02:46:30;1.80;;;0.98;;
20814;SDS011;10568;48.176;16.316;2022-08-02T02:48:58;1.10;;;0.73;;
20814;SDS011;10568;48.176;16.316;2022-08-02T02:51:25;1.00;;;0.80;;
20814;SDS011;10568;48.176;16.316;2022-08-02T02:53:51;0.80;;;0.80;;
20814;SDS011;10568;48.176;16.316;2022-08-02T02:56:18;0.97;;;0.83;;
20814;SDS011;10568;48.176;16.316;2022-08-02T02:58:46;1.30;;;0.80;;
20814;SDS011;10568;48.176;16.316;2022-08-02T03:01:12;1.63;;;0.90;;
20814;SDS011;10568;48.176;16.316;2022-08-02T03:04:01;0.97;;;0.87;;
20814;SDS011;10568;48.176;16.316;2022-08-02T03:06:32;1.20;;;0.90;;
20814;SDS011;10568;48.176;16.316;2022-08-02T03:09:00;1.40;;;1.10;;
20814;SDS011;10568;48.176;16.316;2022-08-02T03:11:26;1.40;;;0.80;;
20814;SDS011;10568;48.176;16.316;2022-08-02T03:14:03;2.10;;;0.80;;
20814;SDS011;10568;48.176;16.316;2022-08-02T03:16:32;1.50;;;0.90;;
20814;SDS011;10568;48.176;16.316;2022-08-02T03:19:00;1.17;;;0.90;;
20814;SDS011;10568;48.176;16.316;2022-08-02T03:21:27;1.00;;;0.80;;
20814;SDS011;10568;48.176;16.316;2022-08-02T03:23:53;1.40;;;0.80;;
20814;SDS011;10568;48.176;16.316;2022-08-02T03:26:19;0.80;;;0.70;;
20814;SDS011;10568;48.176;16.316;2022-08-02T03:28:45;1.00;;;0.83;;
20814;SDS011;10568;48.176;16.316;2022-08-02T03:31:11;1.27;;;1.07;;
20814;SDS011;10568;48.176;16.316;2022-08-02T03:33:37;0.60;;;0.60;;
20814;SDS011;10568;48.176;16.316;2022-08-02T03:36:08;0.70;;;0.70;;
20814;SDS011;10568;48.176;16.316;2022-08-02T03:38:36;1.73;;;1.00;;
20814;SDS011;10568;48.176;16.316;2022-08-02T03:41:02;1.17;;;0.90;;
20814;SDS011;10568;48.176;16.316;2022-08-02T03:43:30;0.70;;;0.70;;
20814;SDS011;10568;48.176;16.316;2022-08-02T03:45:57;1.43;;;0.80;;
20814;SDS011;10568;48.176;16.316;2022-08-02T03:48:24;2.07;;;0.80;;
20814;SDS011;10568;48.176;16.316;2022-08-02T03:50:52;1.07;;;0.80;;
20814;SDS011;10568;48.176;16.316;2022-08-02T03:53:19;1.33;;;0.90;;
20814;SDS011;10568;48.176;16.316;2022-08-02T03:55:46;2.63;;;1.00;;
20814;SDS011;10568;48.176;16.316;2022-08-02T03:58:19;1.57;;;0.90;;
20814;SDS011;10568;48.176;16.316;2022-08-02T04:00:46;0.80;;;0.80;;
20814;SDS011;10568;48.176;16.316;2022-08-02T04:03:12;1.17;;;0.90;;
20814;SDS011;10568;48.176;16.316;2022-08-02T04:05:39;0.80;;;0.80;;
20814;SDS011;10568;48.176;16.316;2022-08-02T04:08:05;0.80;;;0.80;;
20814;SDS011;10568;48.176;16.316;2022-08-02T04:10:32;1.00;;;0.80;;
20814;SDS011;10568;48.176;16.316;2022-08-02T04:13:17;1.30;;;0.90;;
20814;SDS011;10568;48.176;16.316;2022-08-02T04:15:44;2.37;;;0.67;;
20814;SDS011;10568;48.176;16.316;2022-08-02T04:18:13;1.13;;;1.00;;
20814;SDS011;10568;48.176;16.316;2022-08-02T04:20:40;1.13;;;0.73;;
20814;SDS011;10568;48.176;16.316;2022-08-02T04:23:09;0.87;;;0.80;;
20814;SDS011;10568;48.176;16.316;2022-08-02T04:25:38;0.77;;;0.73;;
20814;SDS011;10568;48.176;16.316;2022-08-02T04:28:06;0.87;;;0.80;;
20814;SDS011;10568;48.176;16.316;2022-08-02T04:30:33;1.07;;;0.97;;
20814;SDS011;10568;48.176;16.316;2022-08-02T04:33:00;0.70;;;0.70;;
20814;SDS011;10568;48.176;16.316;2022-08-02T04:35:26;0.70;;;0.70;;
20814;SDS011;10568;48.176;16.316;2022-08-02T04:37:52;1.23;;;0.83;;
20814;SDS011;10568;48.176;16.316;2022-08-02T04:40:19;1.23;;;0.73;;
20814;SDS011;10568;48.176;16.316;2022-08-02T04:42:45;1.87;;;0.90;;
20814;SDS011;10568;48.176;16.316;2022-08-02T04:45:10;0.90;;;0.80;;
20814;SDS011;10568;48.176;16.316;2022-08-02T04:47:37;1.20;;;0.80;;
20814;SDS011;10568;48.176;16.316;2022-08-02T04:50:03;0.80;;;0.80;;
20814;SDS011;10568;48.176;16.316;2022-08-02T04:52:29;0.73;;;0.70;;
20814;SDS011;10568;48.176;16.316;2022-08-02T04:54:55;2.42;;;1.10;;
20814;SDS011;10568;48.176;16.316;2022-08-02T04:57:21;1.33;;;0.90;;
20814;SDS011;10568;48.176;16.316;2022-08-02T05:00:05;0.80;;;0.80;;
20814;SDS011;10568;48.176;16.316;2022-08-02T05:02:42;1.00;;;0.90;;
20814;SDS011;10568;48.176;16.316;2022-08-02T05:05:07;1.40;;;0.70;;
20814;SDS011;10568;48.176;16.316;2022-08-02T05:07:33;0.97;;;0.90;;
20814;SDS011;10568;48.176;16.316;2022-08-02T05:09:59;1.10;;;1.00;;
20814;SDS011;10568;48.176;16.316;2022-08-02T05:12:25;2.17;;;1.20;;
20814;SDS011;10568;48.176;16.316;2022-08-02T05:14:51;1.10;;;1.00;;
20814;SDS011;10568;48.176;16.316;2022-08-02T05:17:16;2.03;;;0.90;;
20814;SDS011;10568;48.176;16.316;2022-08-02T05:19:42;1.10;;;1.00;;
20814;SDS011;10568;48.176;16.316;2022-08-02T05:22:08;2.50;;;1.10;;
20814;SDS011;10568;48.176;16.316;2022-08-02T05:24:34;1.20;;;0.87;;
20814;SDS011;10568;48.176;16.316;2022-08-02T05:26:59;1.63;;;0.90;;
20814;SDS011;10568;48.176;16.316;2022-08-02T05:29:25;1.40;;;0.97;;
20814;SDS011;10568;48.176;16.316;2022-08-02T05:31:51;1.30;;;1.20;;
20814;SDS011;10568;48.176;16.316;2022-08-02T05:34:18;1.27;;;0.90;;
20814;SDS011;10568;48.176;16.316;2022-08-02T05:36:44;1.10;;;1.00;;
20814;SDS011;10568;48.176;16.316;2022-08-02T05:39:10;0.80;;;0.80;;
20814;SDS011;10568;48.176;16.316;2022-08-02T05:41:35;2.70;;;1.10;;
20814;SDS011;10568;48.176;16.316;2022-08-02T05:44:02;1.58;;;1.05;;
20814;SDS011;10568;48.176;16.316;2022-08-02T05:46:28;1.37;;;1.23;;
20814;SDS011;10568;48.176;16.316;2022-08-02T05:48:55;1.35;;;1.23;;
20814;SDS011;10568;48.176;16.316;2022-08-02T05:51:22;1.38;;;1.25;;
20814;SDS011;10568;48.176;16.316;2022-08-02T05:54:16;1.50;;;1.30;;
20814;SDS011;10568;48.176;16.316;2022-08-02T05:56:55;1.55;;;1.10;;
20814;SDS011;10568;48.176;16.316;2022-08-02T05:59:43;1.60;;;1.10;;
20814;SDS011;10568;48.176;16.316;2022-08-02T06:02:33;1.67;;;1.23;;
20814;SDS011;10568;48.176;16.316;2022-08-02T06:05:12;1.55;;;1.10;;
20814;SDS011;10568;48.176;16.316;2022-08-02T06:07:43;1.33;;;1.23;;
20814;SDS011;10568;48.176;16.316;2022-08-02T06:10:11;1.92;;;1.38;;
20814;SDS011;10568;48.176;16.316;2022-08-02T06:12:45;1.08;;;0.98;;
20814;SDS011;10568;48.176;16.316;2022-08-02T06:15:16;2.28;;;1.13;;
20814;SDS011;10568;48.176;16.316;2022-08-02T06:17:43;1.85;;;1.20;;
20814;SDS011;10568;48.176;16.316;2022-08-02T06:20:10;1.65;;;1.50;;
20814;SDS011;10568;48.176;16.316;2022-08-02T06:22:39;1.25;;;1.15;;
20814;SDS011;10568;48.176;16.316;2022-08-02T06:25:07;2.22;;;1.20;;
20814;SDS011;10568;48.176;16.316;2022-08-02T06:27:33;1.50;;;1.30;;
20814;SDS011;10568;48.176;16.316;2022-08-02T06:29:59;1.27;;;1.00;;
20814;SDS011;10568;48.176;16.316;2022-08-02T06:32:27;1.55;;;1.17;;
20814;SDS011;10568;48.176;16.316;2022-08-02T06:34:53;3.53;;;1.40;;
20814;SDS011;10568;48.176;16.316;2022-08-02T06:40:00;1.75;;;1.42;;
20814;SDS011;10568;48.176;16.316;2022-08-02T06:45:47;1.90;;;1.00;;
20814;SDS011;10568;48.176;16.316;2022-08-02T06:48:13;1.30;;;1.20;;
20814;SDS011;10568;48.176;16.316;2022-08-02T06:50:39;2.08;;;1.40;;
20814;SDS011;10568;48.176;16.316;2022-08-02T06:53:08;1.73;;;1.05;;
20814;SDS011;10568;48.176;16.316;2022-08-02T06:55:35;1.30;;;1.05;;
20814;SDS011;10568;48.176;16.316;2022-08-02T06:58:01;1.60;;;1.30;;
20814;SDS011;10568;48.176;16.316;2022-08-02T07:00:27;1.10;;;1.00;;
20814;SDS011;10568;48.176;16.316;2022-08-02T07:02:54;1.20;;;1.10;;
20814;SDS011;10568;48.176;16.316;2022-08-02T07:05:20;2.13;;;1.40;;
20814;SDS011;10568;48.176;16.316;2022-08-02T07:07:46;1.33;;;1.15;;
20814;SDS011;10568;48.176;16.316;2022-08-02T07:10:12;1.95;;;1.20;;
20814;SDS011;10568;48.176;16.316;2022-08-02T07:12:38;1.70;;;1.10;;
20814;SDS011;10568;48.176;16.316;2022-08-02T07:15:05;1.80;;;1.10;;
20814;SDS011;10568;48.176;16.316;2022-08-02T07:17:32;2.55;;;1.05;;
20814;SDS011;10568;48.176;16.316;2022-08-02T07:19:59;1.23;;;1.13;;
20814;SDS011;10568;48.176;16.316;2022-08-02T07:22:25;1.67;;;0.85;;
20814;SDS011;10568;48.176;16.316;2022-08-02T07:24:52;1.35;;;1.15;;
20814;SDS011;10568;48.176;16.316;2022-08-02T07:27:22;1.50;;;1.40;;
20814;SDS011;10568;48.176;16.316;2022-08-02T07:29:49;1.67;;;1.48;;
20814;SDS011;10568;48.176;16.316;2022-08-02T07:32:16;2.30;;;1.42;;
20814;SDS011;10568;48.176;16.316;2022-08-02T07:34:43;2.47;;;1.10;;
20814;SDS011;10568;48.176;16.316;2022-08-02T07:37:09;1.20;;;1.10;;
20814;SDS011;10568;48.176;16.316;2022-08-02T07:39:35;1.33;;;1.13;;
20814;SDS011;10568;48.176;16.316;2022-08-02T07:42:01;1.98;;;1.20;;
20814;SDS011;10568;48.176;16.316;2022-08-02T07:44:27;1.52;;;1.10;;
20814;SDS011;10568;48.176;16.316;2022-08-02T07:46:59;1.10;;;1.00;;
20814;SDS011;10568;48.176;16.316;2022-08-02T07:49:26;1.35;;;1.20;;
20814;SDS011;10568;48.176;16.316;2022-08-02T07:51:52;1.48;;;1.33;;
20814;SDS011;10568;48.176;16.316;2022-08-02T07:54:17;2.72;;;1.50;;
20814;SDS011;10568;48.176;16.316;2022-08-02T07:56:44;2.28;;;1.40;;
20814;SDS011;10568;48.176;16.316;2022-08-02T07:59:10;2.60;;;1.15;;
20814;SDS011;10568;48.176;16.316;2022-08-02T08:01:35;1.58;;;1.42;;
20814;SDS011;10568;48.176;16.316;2022-08-02T08:04:02;1.40;;;1.30;;
20814;SDS011;10568;48.176;16.316;2022-08-02T08:06:28;1.83;;;1.40;;
20814;SDS011;10568;48.176;16.316;2022-08-02T08:08:55;1.58;;;1.30;;
20814;SDS011;10568;48.176;16.316;2022-08-02T08:11:22;1.95;;;1.23;;
20814;SDS011;10568;48.176;16.316;2022-08-02T08:13:48;1.50;;;1.40;;
20814;SDS011;10568;48.176;16.316;2022-08-02T08:16:14;1.60;;;1.50;;
20814;SDS011;10568;48.176;16.316;2022-08-02T08:18:40;1.40;;;1.30;;
20814;SDS011;10568;48.176;16.316;2022-08-02T08:21:06;1.30;;;1.20;;
20814;SDS011;10568;48.176;16.316;2022-08-02T08:23:32;1.60;;;1.35;;
20814;SDS011;10568;48.176;16.316;2022-08-02T08:25:59;1.95;;;1.58;;
20814;SDS011;10568;48.176;16.316;2022-08-02T08:28:25;1.83;;;1.40;;
20814;SDS011;10568;48.176;16.316;2022-08-02T08:30:51;2.20;;;1.70;;
20814;SDS011;10568;48.176;16.316;2022-08-02T08:33:17;1.33;;;1.23;;
20814;SDS011;10568;48.176;16.316;2022-08-02T08:35:43;1.83;;;1.52;;
20814;SDS011;10568;48.176;16.316;2022-08-02T08:38:09;1.63;;;1.35;;
20814;SDS011;10568;48.176;16.316;2022-08-02T08:40:35;1.75;;;1.33;;
20814;SDS011;10568;48.176;16.316;2022-08-02T08:43:01;1.88;;;1.40;;
20814;SDS011;10568;48.176;16.316;2022-08-02T08:45:28;1.60;;;1.50;;
20814;SDS011;10568;48.176;16.316;2022-08-02T08:48:00;2.55;;;1.25;;
20814;SDS011;10568;48.176;16.316;2022-08-02T08:50:32;1.75;;;1.40;;
20814;SDS011;10568;48.176;16.316;2022-08-02T08:53:07;1.45;;;1.35;;
20814;SDS011;10568;48.176;16.316;2022-08-02T08:55:34;1.65;;;1.20;;
20814;SDS011;10568;48.176;16.316;2022-08-02T08:58:01;1.50;;;1.40;;
20814;SDS011;10568;48.176;16.316;2022-08-02T09:00:30;1.98;;;1.27;;
20814;SDS011;10568;48.176;16.316;2022-08-02T09:03:09;1.55;;;1.30;;
20814;SDS011;10568;48.176;16.316;2022-08-02T09:05:36;2.03;;;1.33;;
20814;SDS011;10568;48.176;16.316;2022-08-02T09:08:03;1.45;;;1.35;;
20814;SDS011;10568;48.176;16.316;2022-08-02T09:10:30;1.38;;;1.27;;
20814;SDS011;10568;48.176;16.316;2022-08-02T09:15:42;1.35;;;1.25;;
20814;SDS011;10568;48.176;16.316;2022-08-02T09:18:09;1.50;;;1.40;;
20814;SDS011;10568;48.176;16.316;2022-08-02T09:20:57;1.23;;;1.13;;
20814;SDS011;10568;48.176;16.316;2022-08-02T09:23:23;1.40;;;1.30;;
20814;SDS011;10568;48.176;16.316;2022-08-02T09:26:24;1.90;;;1.35;;
20814;SDS011;10568;48.176;16.316;2022-08-02T09:29:02;1.65;;;1.02;;
20814;SDS011;10568;48.176;16.316;2022-08-02T09:31:28;2.13;;;1.40;;
20814;SDS011;10568;48.176;16.316;2022-08-02T09:33:58;1.52;;;1.20;;
20814;SDS011;10568;48.176;16.316;2022-08-02T09:36:25;2.88;;;1.40;;
20814;SDS011;10568;48.176;16.316;2022-08-02T09:38:54;1.23;;;1.02;;
20814;SDS011;10568;48.176;16.316;2022-08-02T09:41:29;1.30;;;1.02;;
20814;SDS011;10568;48.176;16.316;2022-08-02T09:43:58;1.20;;;0.90;;
20814;SDS011;10568;48.176;16.316;2022-08-02T09:46:28;1.13;;;1.10;;
20814;SDS011;10568;48.176;16.316;2022-08-02T09:48:56;1.17;;;1.08;;
20814;SDS011;10568;48.176;16.316;2022-08-02T09:51:24;1.17;;;0.98;;
20814;SDS011;10568;48.176;16.316;2022-08-02T09:53:58;1.08;;;0.95;;
20814;SDS011;10568;48.176;16.316;2022-08-02T09:56:27;0.95;;;0.95;;
20814;SDS011;10568;48.176;16.316;2022-08-02T09:59:07;1.42;;;1.10;;
20814;SDS011;10568;48.176;16.316;2022-08-02T10:01:34;1.23;;;1.08;;
20814;SDS011;10568;48.176;16.316;2022-08-02T10:04:04;1.90;;;0.90;;
20814;SDS011;10568;48.176;16.316;2022-08-02T10:06:36;1.15;;;0.80;;
20814;SDS011;10568;48.176;16.316;2022-08-02T10:09:03;1.92;;;1.00;;
20814;SDS011;10568;48.176;16.316;2022-08-02T10:11:29;1.45;;;1.02;;
20814;SDS011;10568;48.176;16.316;2022-08-02T10:13:56;1.35;;;1.10;;
20814;SDS011;10568;48.176;16.316;2022-08-02T10:16:23;0.70;;;0.70;;
20814;SDS011;10568;48.176;16.316;2022-08-02T10:18:49;1.10;;;1.00;;
20814;SDS011;10568;48.176;16.316;2022-08-02T10:21:23;0.80;;;0.80;;
20814;SDS011;10568;48.176;16.316;2022-08-02T10:24:02;0.82;;;0.82;;
20814;SDS011;10568;48.176;16.316;2022-08-02T10:26:40;0.88;;;0.82;;
20814;SDS011;10568;48.176;16.316;2022-08-02T10:29:08;0.95;;;0.90;;
20814;SDS011;10568;48.176;16.316;2022-08-02T10:31:42;0.90;;;0.90;;
20814;SDS011;10568;48.176;16.316;2022-08-02T10:34:16;1.00;;;0.90;;
20814;SDS011;10568;48.176;16.316;2022-08-02T10:36:45;0.90;;;0.90;;
20814;SDS011;10568;48.176;16.316;2022-08-02T10:39:13;1.52;;;0.77;;
20814;SDS011;10568;48.176;16.316;2022-08-02T10:44:44;1.08;;;0.95;;
20814;SDS011;10568;48.176;16.316;2022-08-02T10:52:23;1.00;;;0.85;;
20814;SDS011;10568;48.176;16.316;2022-08-02T10:54:58;0.90;;;0.85;;
20814;SDS011;10568;48.176;16.316;2022-08-02T10:57:44;1.25;;;1.00;;
20814;SDS011;10568;48.176;16.316;2022-08-02T11:00:11;1.15;;;0.88;;
20814;SDS011;10568;48.176;16.316;2022-08-02T11:02:50;1.70;;;0.80;;
20814;SDS011;10568;48.176;16.316;2022-08-02T11:07:56;0.60;;;0.60;;
20814;SDS011;10568;48.176;16.316;2022-08-02T11:12:57;0.80;;;0.80;;
20814;SDS011;10568;48.176;16.316;2022-08-02T11:15:47;0.70;;;0.70;;
20814;SDS011;10568;48.176;16.316;2022-08-02T11:18:14;1.85;;;0.90;;
20814;SDS011;10568;48.176;16.316;2022-08-02T11:20:40;0.85;;;0.75;;
20814;SDS011;10568;48.176;16.316;2022-08-02T11:26:00;0.70;;;0.70;;
20814;SDS011;10568;48.176;16.316;2022-08-02T11:28:29;0.60;;;0.60;;
20814;SDS011;10568;48.176;16.316;2022-08-02T11:30:57;0.65;;;0.65;;
20814;SDS011;10568;48.176;16.316;2022-08-02T11:33:30;0.57;;;0.57;;
20814;SDS011;10568;48.176;16.316;2022-08-02T11:36:02;1.02;;;0.70;;
20814;SDS011;10568;48.176;16.316;2022-08-02T11:38:29;0.90;;;0.75;;
20814;SDS011;10568;48.176;16.316;2022-08-02T11:40:55;1.10;;;0.60;;
20814;SDS011;10568;48.176;16.316;2022-08-02T11:43:22;0.60;;;0.60;;
20814;SDS011;10568;48.176;16.316;2022-08-02T11:45:51;0.60;;;0.60;;
20814;SDS011;10568;48.176;16.316;2022-08-02T11:48:36;0.80;;;0.80;;
20814;SDS011;10568;48.176;16.316;2022-08-02T11:51:08;0.60;;;0.60;;
20814;SDS011;10568;48.176;16.316;2022-08-02T11:53:46;0.85;;;0.63;;
20814;SDS011;10568;48.176;16.316;2022-08-02T11:56:29;0.90;;;0.70;;
20814;SDS011;10568;48.176;16.316;2022-08-02T11:59:00;0.88;;;0.70;;
20814;SDS011;10568;48.176;16.316;2022-08-02T12:01:26;0.70;;;0.60;;
20814;SDS011;10568;48.176;16.316;2022-08-02T12:03:52;0.70;;;0.70;;
20814;SDS011;10568;48.176;16.316;2022-08-02T12:06:23;0.70;;;0.70;;
20814;SDS011;10568;48.176;16.316;2022-08-02T12:08:57;0.57;;;0.57;;
20814;SDS011;10568;48.176;16.316;2022-08-02T12:11:33;1.27;;;0.80;;
20814;SDS011;10568;48.176;16.316;2022-08-02T12:14:00;1.10;;;0.70;;
20814;SDS011;10568;48.176;16.316;2022-08-02T12:16:37;0.70;;;0.70;;
20814;SDS011;10568;48.176;16.316;2022-08-02T12:19:23;0.63;;;0.63;;
20814;SDS011;10568;48.176;16.316;2022-08-02T12:24:34;0.60;;;0.60;;
20814;SDS011;10568;48.176;16.316;2022-08-02T12:27:01;1.33;;;0.70;;
20814;SDS011;10568;48.176;16.316;2022-08-02T12:32:00;1.05;;;0.95;;
20814;SDS011;10568;48.176;16.316;2022-08-02T12:34:26;0.90;;;0.70;;
20814;SDS011;10568;48.176;16.316;2022-08-02T12:39:58;1.25;;;0.93;;
20814;SDS011;10568;48.176;16.316;2022-08-02T12:42:18;0.70;;;0.70;;
20814;SDS011;10568;48.176;16.316;2022-08-02T12:44:54;0.60;;;0.57;;
20814;SDS011;10568;48.176;16.316;2022-08-02T12:47:22;0.77;;;0.70;;
20814;SDS011;10568;48.176;16.316;2022-08-02T12:52:41;0.75;;;0.75;;
20814;SDS011;10568;48.176;16.316;2022-08-02T12:55:14;1.00;;;0.70;;
20814;SDS011;10568;48.176;16.316;2022-08-02T13:00:39;0.85;;;0.80;;
20814;SDS011;10568;48.176;16.316;2022-08-02T13:03:05;0.65;;;0.65;;
20814;SDS011;10568;48.176;16.316;2022-08-02T13:05:33;0.63;;;0.60;;
20814;SDS011;10568;48.176;16.316;2022-08-02T13:08:00;1.33;;;0.70;;
20814;SDS011;10568;48.176;16.316;2022-08-02T13:10:27;0.70;;;0.70;;
20814;SDS011;10568;48.176;16.316;2022-08-02T13:12:53;0.80;;;0.80;;
20814;SDS011;10568;48.176;16.316;2022-08-02T13:15:20;0.80;;;0.75;;
20814;SDS011;10568;48.176;16.316;2022-08-02T13:17:46;0.95;;;0.80;;
20814;SDS011;10568;48.176;16.316;2022-08-02T13:20:12;0.60;;;0.60;;
20814;SDS011;10568;48.176;16.316;2022-08-02T13:22:39;0.60;;;0.60;;
20814;SDS011;10568;48.176;16.316;2022-08-02T13:25:05;0.50;;;0.50;;
20814;SDS011;10568;48.176;16.316;2022-08-02T13:27:32;0.70;;;0.70;;
20814;SDS011;10568;48.176;16.316;2022-08-02T13:29:58;0.73;;;0.60;;
20814;SDS011;10568;48.176;16.316;2022-08-02T13:32:25;1.02;;;0.80;;
20814;SDS011;10568;48.176;16.316;2022-08-02T13:34:53;0.70;;;0.70;;
20814;SDS011;10568;48.176;16.316;2022-08-02T13:37:20;0.82;;;0.60;;
20814;SDS011;10568;48.176;16.316;2022-08-02T13:39:46;1.13;;;0.70;;
20814;SDS011;10568;48.176;16.316;2022-08-02T13:42:12;0.95;;;0.60;;
20814;SDS011;10568;48.176;16.316;2022-08-02T13:44:38;1.10;;;0.70;;
20814;SDS011;10568;48.176;16.316;2022-08-02T13:47:03;0.70;;;0.70;;
20814;SDS011;10568;48.176;16.316;2022-08-02T13:49:29;1.20;;;0.90;;
20814;SDS011;10568;48.176;16.316;2022-08-02T13:51:55;0.93;;;0.65;;
20814;SDS011;10568;48.176;16.316;2022-08-02T13:54:21;0.75;;;0.75;;
20814;SDS011;10568;48.176;16.316;2022-08-02T13:56:47;0.73;;;0.70;;
20814;SDS011;10568;48.176;16.316;2022-08-02T13:59:13;0.77;;;0.65;;
20814;SDS011;10568;48.176;16.316;2022-08-02T14:01:39;1.10;;;0.90;;
20814;SDS011;10568;48.176;16.316;2022-08-02T14:04:05;0.60;;;0.60;;
20814;SDS011;10568;48.176;16.316;2022-08-02T14:06:31;0.75;;;0.75;;
20814;SDS011;10568;48.176;16.316;2022-08-02T14:08:57;0.73;;;0.73;;
20814;SDS011;10568;48.176;16.316;2022-08-02T14:11:23;0.80;;;0.80;;
20814;SDS011;10568;48.176;16.316;2022-08-02T14:13:49;1.30;;;0.80;;
20814;SDS011;10568;48.176;16.316;2022-08-02T14:16:14;0.70;;;0.70;;
20814;SDS011;10568;48.176;16.316;2022-08-02T14:18:40;0.73;;;0.73;;
20814;SDS011;10568;48.176;16.316;2022-08-02T14:21:06;1.60;;;0.80;;
20814;SDS011;10568;48.176;16.316;2022-08-02T14:23:32;1.58;;;0.73;;
20814;SDS011;10568;48.176;16.316;2022-08-02T14:25:57;0.80;;;0.80;;
20814;SDS011;10568;48.176;16.316;2022-08-02T14:28:25;1.02;;;0.80;;
20814;SDS011;10568;48.176;16.316;2022-08-02T14:30:50;0.75;;;0.73;;
20814;SDS011;10568;48.176;16.316;2022-08-02T14:33:16;0.90;;;0.90;;
20814;SDS011;10568;48.176;16.316;2022-08-02T14:35:43;1.00;;;0.80;;
20814;SDS011;10568;48.176;16.316;2022-08-02T14:38:08;0.70;;;0.70;;
20814;SDS011;10568;48.176;16.316;2022-08-02T14:40:34;2.33;;;0.80;;
20814;SDS011;10568;48.176;16.316;2022-08-02T14:43:00;0.82;;;0.80;;
20814;SDS011;10568;48.176;16.316;2022-08-02T14:45:28;0.70;;;0.70;;
20814;SDS011;10568;48.176;16.316;2022-08-02T14:47:54;1.08;;;0.98;;
20814;SDS011;10568;48.176;16.316;2022-08-02T14:50:20;1.50;;;0.77;;
20814;SDS011;10568;48.176;16.316;2022-08-02T14:52:47;0.95;;;0.85;;
20814;SDS011;10568;48.176;16.316;2022-08-02T14:55:23;0.90;;;0.80;;
20814;SDS011;10568;48.176;16.316;2022-08-02T14:57:48;1.00;;;0.80;;
20814;SDS011;10568;48.176;16.316;2022-08-02T15:00:15;2.70;;;0.88;;
20814;SDS011;10568;48.176;16.316;2022-08-02T15:02:41;1.02;;;0.93;;
20814;SDS011;10568;48.176;16.316;2022-08-02T15:05:08;0.80;;;0.80;;
20814;SDS011;10568;48.176;16.316;2022-08-02T15:07:34;1.25;;;0.90;;
20814;SDS011;10568;48.176;16.316;2022-08-02T15:09:59;1.00;;;0.90;;
20814;SDS011;10568;48.176;16.316;2022-08-02T15:12:25;0.70;;;0.65;;
20814;SDS011;10568;48.176;16.316;2022-08-02T15:14:51;1.08;;;0.80;;
20814;SDS011;10568;48.176;16.316;2022-08-02T15:17:17;0.80;;;0.80;;
20814;SDS011;10568;48.176;16.316;2022-08-02T15:19:43;0.70;;;0.70;;
20814;SDS011;10568;48.176;16.316;2022-08-02T15:22:09;0.82;;;0.82;;
20814;SDS011;10568;48.176;16.316;2022-08-02T15:24:34;1.00;;;0.90;;
20814;SDS011;10568;48.176;16.316;2022-08-02T15:27:00;0.75;;;0.75;;
20814;SDS011;10568;48.176;16.316;2022-08-02T15:29:26;1.20;;;0.88;;
20814;SDS011;10568;48.176;16.316;2022-08-02T15:31:52;1.08;;;0.90;;
20814;SDS011;10568;48.176;16.316;2022-08-02T15:34:17;1.02;;;0.90;;
20814;SDS011;10568;48.176;16.316;2022-08-02T15:36:44;1.08;;;0.88;;